sensor_id;sensor_type;location;lat;lon;timestamp;P1;durP1;ratioP1;P2;durP2;ratioP2
8129;SDS011;4106;52.532;13.408;2022-08-03T00:00:58;2.40;;;2.20;;
8129;SDS011;4106;52.532;13.408;2022-08-03T00:03:26;2.92;;;2.20;;
8129;SDS011;4106;52.532;13.408;2022-08-03T00:05:54;2.62;;;2.40;;
8129;SDS011;4106;52.532;13.408;2022-08-03T00:08:21;5.37;;;3.10;;
8129;SDS011;4106;52.532;13.408;2022-08-03T00:10:49;3.20;;;2.33;;
8129;SDS011;4106;52.532;13.408;2022-08-03T00:13:16;4.25;;;2.65;;
8129;SDS011;4106;52.532;13.408;2022-08-03T00:15:44;2.95;;;2.28;;
8129;SDS011;4106;52.532;13.408;2022-08-03T00:18:11;3.47;;;2.53;;
8129;SDS011;4106;52.532;13.408;2022-08-03T00:20:38;4.15;;;2.65;;
8129;SDS011;4106;52.532;13.408;2022-08-03T00:23:05;4.32;;;2.50;;
8129;SDS011;4106;52.532;13.408;2022-08-03T00:25:34;2.78;;;2.53;;
8129;SDS011;4106;52.532;13.408;2022-08-03T00:28:01;2.78;;;2.58;;
8129;SDS011;4106;52.532;13.408;2022-08-03T00:30:29;2.87;;;2.45;;
8129;SDS011;4106;52.532;13.408;2022-08-03T00:32:56;3.30;;;2.47;;
8129;SDS011;4106;52.532;13.408;2022-08-03T00:35:23;2.95;;;2.40;;
8129;SDS011;4106;52.532;13.408;2022-08-03T00:37:50;3.45;;;2.60;;
8129;SDS011;4106;52.532;13.408;2022-08-03T00:40:18;2.75;;;2.33;;
8129;SDS011;4106;52.532;13.408;2022-08-03T00:42:45;3.70;;;2.65;;
8129;SDS011;4106;52.532;13.408;2022-08-03T00:45:13;2.65;;;2.40;;
8129;SDS011;4106;52.532;13.408;2022-08-03T00:47:41;4.37;;;2.70;;
8129;SDS011;4106;52.532;13.408;2022-08-03T00:50:09;3.37;;;2.60;;
8129;SDS011;4106;52.532;13.408;2022-08-03T00:52:36;2.80;;;2.55;;
8129;SDS011;4106;52.532;13.408;2022-08-03T00:55:04;5.43;;;2.78;;
8129;SDS011;4106;52.532;13.408;2022-08-03T00:57:31;2.65;;;2.45;;
8129;SDS011;4106;52.532;13.408;2022-08-03T00:59:58;3.75;;;2.65;;
8129;SDS011;4106;52.532;13.408;2022-08-03T01:02:26;2.83;;;2.37;;
8129;SDS011;4106;52.532;13.408;2022-08-03T01:04:54;2.65;;;2.20;;
8129;SDS011;4106;52.532;13.408;2022-08-03T01:10:00;3.95;;;2.75;;
8129;SDS011;4106;52.532;13.408;2022-08-03T01:12:35;3.35;;;2.40;;
8129;SDS011;4106;52.532;13.408;2022-08-03T01:15:07;2.55;;;2.35;;
8129;SDS011;4106;52.532;13.408;2022-08-03T01:17:42;3.90;;;2.58;;
8129;SDS011;4106;52.532;13.408;2022-08-03T01:20:07;2.75;;;1.85;;
8129;SDS011;4106;52.532;13.408;2022-08-03T01:26:28;2.40;;;2.17;;
8129;SDS011;4106;52.532;13.408;2022-08-03T01:30:44;2.85;;;2.62;;
8129;SDS011;4106;52.532;13.408;2022-08-03T01:33:16;2.65;;;2.40;;
8129;SDS011;4106;52.532;13.408;2022-08-03T01:35:44;3.28;;;2.22;;
8129;SDS011;4106;52.532;13.408;2022-08-03T01:38:12;3.40;;;1.90;;
8129;SDS011;4106;52.532;13.408;2022-08-03T01:40:38;2.53;;;2.30;;
8129;SDS011;4106;52.532;13.408;2022-08-03T01:43:05;2.12;;;1.75;;
8129;SDS011;4106;52.532;13.408;2022-08-03T01:45:33;2.62;;;2.42;;
8129;SDS011;4106;52.532;13.408;2022-08-03T01:48:01;2.40;;;2.20;;
8129;SDS011;4106;52.532;13.408;2022-08-03T01:50:28;2.60;;;2.40;;
8129;SDS011;4106;52.532;13.408;2022-08-03T01:52:55;2.40;;;2.20;;
8129;SDS011;4106;52.532;13.408;2022-08-03T01:55:24;3.47;;;2.30;;
8129;SDS011;4106;52.532;13.408;2022-08-03T01:57:50;2.55;;;2.30;;
8129;SDS011;4106;52.532;13.408;2022-08-03T02:00:17;2.97;;;2.20;;
8129;SDS011;4106;52.532;13.408;2022-08-03T02:02:45;3.85;;;2.15;;
8129;SDS011;4106;52.532;13.408;2022-08-03T02:05:11;2.50;;;2.30;;
8129;SDS011;4106;52.532;13.408;2022-08-03T02:07:39;2.35;;;2.15;;
8129;SDS011;4106;52.532;13.408;2022-08-03T02:10:06;3.12;;;2.72;;
8129;SDS011;4106;52.532;13.408;2022-08-03T02:12:34;2.35;;;2.25;;
8129;SDS011;4106;52.532;13.408;2022-08-03T02:15:02;2.83;;;1.92;;
8129;SDS011;4106;52.532;13.408;2022-08-03T02:17:30;1.77;;;1.67;;
8129;SDS011;4106;52.532;13.408;2022-08-03T02:19:57;2.08;;;1.87;;
8129;SDS011;4106;52.532;13.408;2022-08-03T02:22:24;3.55;;;2.30;;
8129;SDS011;4106;52.532;13.408;2022-08-03T02:24:52;3.55;;;1.95;;
8129;SDS011;4106;52.532;13.408;2022-08-03T02:27:21;2.62;;;2.42;;
8129;SDS011;4106;52.532;13.408;2022-08-03T02:29:48;2.35;;;1.90;;
8129;SDS011;4106;52.532;13.408;2022-08-03T02:32:16;2.50;;;2.30;;
8129;SDS011;4106;52.532;13.408;2022-08-03T02:34:44;3.97;;;2.53;;
8129;SDS011;4106;52.532;13.408;2022-08-03T02:37:10;2.40;;;2.20;;
8129;SDS011;4106;52.532;13.408;2022-08-03T02:39:38;2.42;;;2.22;;
8129;SDS011;4106;52.532;13.408;2022-08-03T02:42:05;2.37;;;2.17;;
8129;SDS011;4106;52.532;13.408;2022-08-03T02:44:33;2.42;;;2.22;;
8129;SDS011;4106;52.532;13.408;2022-08-03T02:47:02;2.45;;;2.10;;
8129;SDS011;4106;52.532;13.408;2022-08-03T02:49:29;2.80;;;2.55;;
8129;SDS011;4106;52.532;13.408;2022-08-03T02:51:57;3.00;;;2.10;;
8129;SDS011;4106;52.532;13.408;2022-08-03T02:54:25;2.72;;;2.00;;
8129;SDS011;4106;52.532;13.408;2022-08-03T02:56:53;1.87;;;1.77;;
8129;SDS011;4106;52.532;13.408;2022-08-03T02:59:22;2.12;;;1.92;;
8129;SDS011;4106;52.532;13.408;2022-08-03T03:01:50;2.22;;;2.10;;
8129;SDS011;4106;52.532;13.408;2022-08-03T03:04:18;3.22;;;2.00;;
8129;SDS011;4106;52.532;13.408;2022-08-03T03:06:46;2.62;;;2.22;;
8129;SDS011;4106;52.532;13.408;2022-08-03T03:09:13;2.20;;;1.87;;
8129;SDS011;4106;52.532;13.408;2022-08-03T03:11:40;2.50;;;2.03;;
8129;SDS011;4106;52.532;13.408;2022-08-03T03:14:08;2.12;;;2.03;;
8129;SDS011;4106;52.532;13.408;2022-08-03T03:16:35;3.08;;;2.10;;
8129;SDS011;4106;52.532;13.408;2022-08-03T03:19:02;4.43;;;2.40;;
8129;SDS011;4106;52.532;13.408;2022-08-03T03:21:29;3.17;;;2.20;;
8129;SDS011;4106;52.532;13.408;2022-08-03T03:23:57;3.70;;;1.95;;
8129;SDS011;4106;52.532;13.408;2022-08-03T03:26:24;2.45;;;2.20;;
8129;SDS011;4106;52.532;13.408;2022-08-03T03:28:51;5.05;;;2.50;;
8129;SDS011;4106;52.532;13.408;2022-08-03T03:31:18;2.60;;;2.40;;
8129;SDS011;4106;52.532;13.408;2022-08-03T03:33:45;2.95;;;2.45;;
8129;SDS011;4106;52.532;13.408;2022-08-03T03:36:12;3.05;;;2.12;;
8129;SDS011;4106;52.532;13.408;2022-08-03T03:38:40;2.17;;;2.03;;
8129;SDS011;4106;52.532;13.408;2022-08-03T03:41:08;2.25;;;2.05;;
8129;SDS011;4106;52.532;13.408;2022-08-03T03:43:35;1.85;;;1.75;;
8129;SDS011;4106;52.532;13.408;2022-08-03T03:46:03;2.55;;;2.33;;
8129;SDS011;4106;52.532;13.408;2022-08-03T03:48:31;2.20;;;2.00;;
8129;SDS011;4106;52.532;13.408;2022-08-03T03:50:58;2.35;;;2.03;;
8129;SDS011;4106;52.532;13.408;2022-08-03T03:53:25;2.20;;;2.00;;
8129;SDS011;4106;52.532;13.408;2022-08-03T03:55:53;2.40;;;1.85;;
8129;SDS011;4106;52.532;13.408;2022-08-03T03:58:21;3.17;;;2.05;;
8129;SDS011;4106;52.532;13.408;2022-08-03T04:00:48;2.20;;;2.10;;
8129;SDS011;4106;52.532;13.408;2022-08-03T04:03:15;2.20;;;2.00;;
8129;SDS011;4106;52.532;13.408;2022-08-03T04:05:43;2.22;;;2.03;;
8129;SDS011;4106;52.532;13.408;2022-08-03T04:08:16;2.40;;;2.20;;
8129;SDS011;4106;52.532;13.408;2022-08-03T04:11:02;2.78;;;2.35;;
8129;SDS011;4106;52.532;13.408;2022-08-03T04:13:54;2.42;;;2.22;;
8129;SDS011;4106;52.532;13.408;2022-08-03T04:16:22;2.53;;;2.08;;
8129;SDS011;4106;52.532;13.408;2022-08-03T04:18:50;2.10;;;2.00;;
8129;SDS011;4106;52.532;13.408;2022-08-03T04:21:17;2.83;;;2.22;;
8129;SDS011;4106;52.532;13.408;2022-08-03T04:23:45;2.20;;;1.95;;
8129;SDS011;4106;52.532;13.408;2022-08-03T04:26:12;2.65;;;2.40;;
8129;SDS011;4106;52.532;13.408;2022-08-03T04:28:38;2.22;;;2.00;;
8129;SDS011;4106;52.532;13.408;2022-08-03T04:31:05;2.70;;;2.50;;
8129;SDS011;4106;52.532;13.408;2022-08-03T04:33:33;2.78;;;2.55;;
8129;SDS011;4106;52.532;13.408;2022-08-03T04:36:00;2.50;;;2.30;;
8129;SDS011;4106;52.532;13.408;2022-08-03T04:38:27;3.20;;;2.83;;
8129;SDS011;4106;52.532;13.408;2022-08-03T04:40:56;3.08;;;2.45;;
8129;SDS011;4106;52.532;13.408;2022-08-03T04:43:24;2.60;;;2.42;;
8129;SDS011;4106;52.532;13.408;2022-08-03T04:45:51;2.62;;;2.42;;
8129;SDS011;4106;52.532;13.408;2022-08-03T04:48:18;3.50;;;3.05;;
8129;SDS011;4106;52.532;13.408;2022-08-03T04:50:46;3.03;;;2.50;;
8129;SDS011;4106;52.532;13.408;2022-08-03T04:53:12;3.25;;;2.20;;
8129;SDS011;4106;52.532;13.408;2022-08-03T04:55:40;2.67;;;2.47;;
8129;SDS011;4106;52.532;13.408;2022-08-03T04:58:07;2.97;;;2.78;;
8129;SDS011;4106;52.532;13.408;2022-08-03T05:00:35;2.80;;;2.35;;
8129;SDS011;4106;52.532;13.408;2022-08-03T05:03:03;3.37;;;2.30;;
8129;SDS011;4106;52.532;13.408;2022-08-03T05:05:30;2.62;;;2.42;;
8129;SDS011;4106;52.532;13.408;2022-08-03T05:07:57;2.42;;;2.28;;
8129;SDS011;4106;52.532;13.408;2022-08-03T05:10:24;2.72;;;2.20;;
8129;SDS011;4106;52.532;13.408;2022-08-03T05:12:52;2.50;;;2.30;;
8129;SDS011;4106;52.532;13.408;2022-08-03T05:15:19;3.08;;;2.78;;
8129;SDS011;4106;52.532;13.408;2022-08-03T05:17:46;3.00;;;2.80;;
8129;SDS011;4106;52.532;13.408;2022-08-03T05:20:13;2.40;;;2.20;;
8129;SDS011;4106;52.532;13.408;2022-08-03T05:22:40;2.67;;;2.47;;
8129;SDS011;4106;52.532;13.408;2022-08-03T05:25:08;2.80;;;2.45;;
8129;SDS011;4106;52.532;13.408;2022-08-03T05:27:35;2.60;;;2.40;;
8129;SDS011;4106;52.532;13.408;2022-08-03T05:30:02;2.60;;;2.40;;
8129;SDS011;4106;52.532;13.408;2022-08-03T05:32:31;3.78;;;2.60;;
8129;SDS011;4106;52.532;13.408;2022-08-03T05:34:59;4.30;;;2.50;;
8129;SDS011;4106;52.532;13.408;2022-08-03T05:37:27;2.60;;;2.28;;
8129;SDS011;4106;52.532;13.408;2022-08-03T05:39:54;3.70;;;2.25;;
8129;SDS011;4106;52.532;13.408;2022-08-03T05:42:22;5.30;;;2.67;;
8129;SDS011;4106;52.532;13.408;2022-08-03T05:44:50;4.40;;;2.72;;
8129;SDS011;4106;52.532;13.408;2022-08-03T05:47:17;3.33;;;2.67;;
8129;SDS011;4106;52.532;13.408;2022-08-03T05:49:44;5.28;;;2.72;;
8129;SDS011;4106;52.532;13.408;2022-08-03T05:52:11;2.80;;;2.50;;
8129;SDS011;4106;52.532;13.408;2022-08-03T05:54:38;4.20;;;2.92;;
8129;SDS011;4106;52.532;13.408;2022-08-03T05:57:06;2.62;;;2.40;;
8129;SDS011;4106;52.532;13.408;2022-08-03T05:59:33;5.65;;;2.67;;
8129;SDS011;4106;52.532;13.408;2022-08-03T06:02:00;3.08;;;2.47;;
8129;SDS011;4106;52.532;13.408;2022-08-03T06:04:27;2.35;;;2.15;;
8129;SDS011;4106;52.532;13.408;2022-08-03T06:06:55;3.72;;;2.67;;
8129;SDS011;4106;52.532;13.408;2022-08-03T06:09:23;5.62;;;2.20;;
8129;SDS011;4106;52.532;13.408;2022-08-03T06:11:51;2.62;;;2.42;;
8129;SDS011;4106;52.532;13.408;2022-08-03T06:14:19;5.85;;;2.78;;
8129;SDS011;4106;52.532;13.408;2022-08-03T06:16:47;6.65;;;2.80;;
8129;SDS011;4106;52.532;13.408;2022-08-03T06:19:15;5.62;;;2.28;;
8129;SDS011;4106;52.532;13.408;2022-08-03T06:21:43;2.87;;;2.55;;
8129;SDS011;4106;52.532;13.408;2022-08-03T06:24:10;5.32;;;2.85;;
8129;SDS011;4106;52.532;13.408;2022-08-03T06:26:37;3.80;;;2.97;;
8129;SDS011;4106;52.532;13.408;2022-08-03T06:29:04;2.97;;;2.37;;
8129;SDS011;4106;52.532;13.408;2022-08-03T06:31:32;5.75;;;2.60;;
8129;SDS011;4106;52.532;13.408;2022-08-03T06:34:00;4.10;;;2.60;;
8129;SDS011;4106;52.532;13.408;2022-08-03T06:36:28;6.45;;;2.80;;
8129;SDS011;4106;52.532;13.408;2022-08-03T06:38:57;3.22;;;2.28;;
8129;SDS011;4106;52.532;13.408;2022-08-03T06:41:24;2.60;;;2.30;;
8129;SDS011;4106;52.532;13.408;2022-08-03T06:43:52;3.25;;;2.25;;
8129;SDS011;4106;52.532;13.408;2022-08-03T06:46:20;6.57;;;2.30;;
8129;SDS011;4106;52.532;13.408;2022-08-03T06:48:47;2.03;;;1.92;;
8129;SDS011;4106;52.532;13.408;2022-08-03T06:51:14;1.70;;;1.60;;
8129;SDS011;4106;52.532;13.408;2022-08-03T06:53:42;2.22;;;1.67;;
8129;SDS011;4106;52.532;13.408;2022-08-03T06:56:09;5.93;;;2.12;;
8129;SDS011;4106;52.532;13.408;2022-08-03T06:58:36;2.65;;;2.00;;
8129;SDS011;4106;52.532;13.408;2022-08-03T07:01:03;2.20;;;2.00;;
8129;SDS011;4106;52.532;13.408;2022-08-03T07:03:31;2.28;;;2.00;;
8129;SDS011;4106;52.532;13.408;2022-08-03T07:05:59;3.37;;;2.20;;
8129;SDS011;4106;52.532;13.408;2022-08-03T07:08:27;4.65;;;1.90;;
8129;SDS011;4106;52.532;13.408;2022-08-03T07:10:55;4.75;;;2.50;;
8129;SDS011;4106;52.532;13.408;2022-08-03T07:13:23;3.95;;;2.28;;
8129;SDS011;4106;52.532;13.408;2022-08-03T07:15:50;2.05;;;1.40;;
8129;SDS011;4106;52.532;13.408;2022-08-03T07:18:19;3.00;;;2.20;;
8129;SDS011;4106;52.532;13.408;2022-08-03T07:20:47;3.67;;;2.15;;
8129;SDS011;4106;52.532;13.408;2022-08-03T07:23:14;1.62;;;1.52;;
8129;SDS011;4106;52.532;13.408;2022-08-03T07:25:41;4.65;;;2.12;;
8129;SDS011;4106;52.532;13.408;2022-08-03T07:28:08;3.72;;;2.05;;
8129;SDS011;4106;52.532;13.408;2022-08-03T07:30:36;1.27;;;1.27;;
8129;SDS011;4106;52.532;13.408;2022-08-03T07:33:03;3.87;;;2.40;;
8129;SDS011;4106;52.532;13.408;2022-08-03T07:35:30;2.25;;;1.73;;
8129;SDS011;4106;52.532;13.408;2022-08-03T07:37:57;1.27;;;1.17;;
8129;SDS011;4106;52.532;13.408;2022-08-03T07:40:24;2.45;;;2.20;;
8129;SDS011;4106;52.532;13.408;2022-08-03T07:42:52;1.50;;;1.40;;
8129;SDS011;4106;52.532;13.408;2022-08-03T07:45:19;2.25;;;1.85;;
8129;SDS011;4106;52.532;13.408;2022-08-03T07:47:46;1.83;;;1.55;;
8129;SDS011;4106;52.532;13.408;2022-08-03T07:50:14;1.40;;;1.30;;
8129;SDS011;4106;52.532;13.408;2022-08-03T07:52:42;1.45;;;1.45;;
8129;SDS011;4106;52.532;13.408;2022-08-03T07:55:14;1.98;;;1.67;;
8129;SDS011;4106;52.532;13.408;2022-08-03T07:57:42;12.20;;;3.45;;
8129;SDS011;4106;52.532;13.408;2022-08-03T08:00:13;27.35;;;6.75;;
8129;SDS011;4106;52.532;13.408;2022-08-03T08:02:39;36.80;;;7.93;;
8129;SDS011;4106;52.532;13.408;2022-08-03T08:05:07;26.58;;;7.03;;
8129;SDS011;4106;52.532;13.408;2022-08-03T08:07:35;84.75;;;17.65;;
8129;SDS011;4106;52.532;13.408;2022-08-03T08:10:03;63.45;;;13.48;;
8129;SDS011;4106;52.532;13.408;2022-08-03T08:12:31;22.00;;;4.82;;
8129;SDS011;4106;52.532;13.408;2022-08-03T08:14:58;28.20;;;7.45;;
8129;SDS011;4106;52.532;13.408;2022-08-03T08:17:25;9.63;;;3.40;;
8129;SDS011;4106;52.532;13.408;2022-08-03T08:19:53;4.15;;;1.87;;
8129;SDS011;4106;52.532;13.408;2022-08-03T08:22:20;7.00;;;2.12;;
8129;SDS011;4106;52.532;13.408;2022-08-03T08:24:47;4.60;;;1.90;;
8129;SDS011;4106;52.532;13.408;2022-08-03T08:27:15;2.53;;;2.00;;
8129;SDS011;4106;52.532;13.408;2022-08-03T08:29:42;5.05;;;2.03;;
8129;SDS011;4106;52.532;13.408;2022-08-03T08:32:09;5.37;;;2.22;;
8129;SDS011;4106;52.532;13.408;2022-08-03T08:34:37;3.87;;;2.17;;
8129;SDS011;4106;52.532;13.408;2022-08-03T08:37:05;4.25;;;1.90;;
8129;SDS011;4106;52.532;13.408;2022-08-03T08:39:33;2.78;;;1.70;;
8129;SDS011;4106;52.532;13.408;2022-08-03T08:42:01;2.65;;;1.70;;
8129;SDS011;4106;52.532;13.408;2022-08-03T08:44:29;4.18;;;2.05;;
8129;SDS011;4106;52.532;13.408;2022-08-03T08:46:57;3.85;;;2.12;;
8129;SDS011;4106;52.532;13.408;2022-08-03T08:49:25;3.35;;;2.33;;
8129;SDS011;4106;52.532;13.408;2022-08-03T08:51:52;3.55;;;1.90;;
8129;SDS011;4106;52.532;13.408;2022-08-03T08:54:19;3.95;;;1.73;;
8129;SDS011;4106;52.532;13.408;2022-08-03T08:56:47;3.40;;;1.70;;
8129;SDS011;4106;52.532;13.408;2022-08-03T08:59:14;3.83;;;1.50;;
8129;SDS011;4106;52.532;13.408;2022-08-03T09:01:41;2.78;;;1.50;;
8129;SDS011;4106;52.532;13.408;2022-08-03T09:04:08;2.35;;;1.42;;
8129;SDS011;4106;52.532;13.408;2022-08-03T09:06:35;1.52;;;1.42;;
8129;SDS011;4106;52.532;13.408;2022-08-03T09:09:02;1.80;;;1.70;;
8129;SDS011;4106;52.532;13.408;2022-08-03T09:11:30;2.70;;;1.45;;
8129;SDS011;4106;52.532;13.408;2022-08-03T09:13:57;2.62;;;1.80;;
8129;SDS011;4106;52.532;13.408;2022-08-03T09:16:24;2.72;;;1.77;;
8129;SDS011;4106;52.532;13.408;2022-08-03T09:18:52;2.10;;;1.87;;
8129;SDS011;4106;52.532;13.408;2022-08-03T09:21:23;1.85;;;1.75;;
8129;SDS011;4106;52.532;13.408;2022-08-03T09:23:52;3.28;;;2.10;;
8129;SDS011;4106;52.532;13.408;2022-08-03T09:26:23;4.28;;;1.90;;
8129;SDS011;4106;52.532;13.408;2022-08-03T09:28:53;3.03;;;1.77;;
8129;SDS011;4106;52.532;13.408;2022-08-03T09:33:59;2.20;;;1.90;;
8129;SDS011;4106;52.532;13.408;2022-08-03T09:36:33;3.62;;;1.62;;
8129;SDS011;4106;52.532;13.408;2022-08-03T09:39:02;3.80;;;1.87;;
8129;SDS011;4106;52.532;13.408;2022-08-03T09:41:29;3.35;;;2.00;;
8129;SDS011;4106;52.532;13.408;2022-08-03T09:43:57;1.95;;;1.80;;
8129;SDS011;4106;52.532;13.408;2022-08-03T09:46:25;1.95;;;1.70;;
8129;SDS011;4106;52.532;13.408;2022-08-03T09:48:52;2.25;;;1.70;;
8129;SDS011;4106;52.532;13.408;2022-08-03T09:51:22;1.30;;;1.20;;
8129;SDS011;4106;52.532;13.408;2022-08-03T09:53:46;1.98;;;1.77;;
8129;SDS011;4106;52.532;13.408;2022-08-03T09:56:13;3.67;;;1.98;;
8129;SDS011;4106;52.532;13.408;2022-08-03T09:58:44;3.42;;;1.60;;
8129;SDS011;4106;52.532;13.408;2022-08-03T10:01:11;4.03;;;1.80;;
8129;SDS011;4106;52.532;13.408;2022-08-03T10:03:38;3.90;;;1.33;;
8129;SDS011;4106;52.532;13.408;2022-08-03T10:06:18;2.30;;;1.58;;
8129;SDS011;4106;52.532;13.408;2022-08-03T10:08:45;2.45;;;1.30;;
8129;SDS011;4106;52.532;13.408;2022-08-03T10:11:13;2.37;;;1.50;;
8129;SDS011;4106;52.532;13.408;2022-08-03T10:13:40;1.70;;;1.60;;
8129;SDS011;4106;52.532;13.408;2022-08-03T10:16:08;2.87;;;1.50;;
8129;SDS011;4106;52.532;13.408;2022-08-03T10:18:36;1.20;;;1.20;;
8129;SDS011;4106;52.532;13.408;2022-08-03T10:21:05;1.48;;;1.37;;
8129;SDS011;4106;52.532;13.408;2022-08-03T10:23:33;1.20;;;1.20;;
8129;SDS011;4106;52.532;13.408;2022-08-03T10:26:03;4.53;;;1.58;;
8129;SDS011;4106;52.532;13.408;2022-08-03T10:28:35;1.50;;;1.40;;
8129;SDS011;4106;52.532;13.408;2022-08-03T10:31:01;1.87;;;1.40;;
8129;SDS011;4106;52.532;13.408;2022-08-03T10:33:28;3.40;;;1.60;;
8129;SDS011;4106;52.532;13.408;2022-08-03T10:35:55;2.53;;;1.70;;
8129;SDS011;4106;52.532;13.408;2022-08-03T10:38:24;1.80;;;1.55;;
8129;SDS011;4106;52.532;13.408;2022-08-03T10:40:52;1.75;;;1.35;;
8129;SDS011;4106;52.532;13.408;2022-08-03T10:43:20;1.60;;;1.40;;
8129;SDS011;4106;52.532;13.408;2022-08-03T10:45:46;3.62;;;1.60;;
8129;SDS011;4106;52.532;13.408;2022-08-03T10:48:13;1.20;;;1.20;;
8129;SDS011;4106;52.532;13.408;2022-08-03T10:50:41;1.35;;;1.10;;
8129;SDS011;4106;52.532;13.408;2022-08-03T10:53:09;1.10;;;1.10;;
8129;SDS011;4106;52.532;13.408;2022-08-03T10:55:38;1.77;;;1.60;;
8129;SDS011;4106;52.532;13.408;2022-08-03T10:58:10;1.95;;;1.60;;
8129;SDS011;4106;52.532;13.408;2022-08-03T11:00:47;1.27;;;1.17;;
8129;SDS011;4106;52.532;13.408;2022-08-03T11:03:12;1.45;;;1.25;;
8129;SDS011;4106;52.532;13.408;2022-08-03T11:05:40;1.08;;;1.02;;
8129;SDS011;4106;52.532;13.408;2022-08-03T11:10:48;1.40;;;1.30;;
8129;SDS011;4106;52.532;13.408;2022-08-03T11:13:15;2.00;;;1.40;;
8129;SDS011;4106;52.532;13.408;2022-08-03T11:15:42;1.70;;;1.60;;
8129;SDS011;4106;52.532;13.408;2022-08-03T11:18:10;1.60;;;1.50;;
8129;SDS011;4106;52.532;13.408;2022-08-03T11:26:07;5.15;;;1.58;;
8129;SDS011;4106;52.532;13.408;2022-08-03T11:28:35;1.60;;;1.50;;
8129;SDS011;4106;52.532;13.408;2022-08-03T11:33:41;1.85;;;1.75;;
8129;SDS011;4106;52.532;13.408;2022-08-03T11:36:09;1.55;;;1.45;;
8129;SDS011;4106;52.532;13.408;2022-08-03T11:39:00;2.22;;;1.50;;
8129;SDS011;4106;52.532;13.408;2022-08-03T11:41:05;2.12;;;1.40;;
8129;SDS011;4106;52.532;13.408;2022-08-03T11:46:15;4.05;;;1.30;;
8129;SDS011;4106;52.532;13.408;2022-08-03T11:48:44;2.53;;;1.67;;
8129;SDS011;4106;52.532;13.408;2022-08-03T11:53:50;1.50;;;1.40;;
8129;SDS011;4106;52.532;13.408;2022-08-03T11:56:20;1.30;;;1.27;;
8129;SDS011;4106;52.532;13.408;2022-08-03T11:58:48;1.62;;;1.52;;
8129;SDS011;4106;52.532;13.408;2022-08-03T12:01:16;1.35;;;1.30;;
8129;SDS011;4106;52.532;13.408;2022-08-03T12:03:43;1.92;;;1.77;;
8129;SDS011;4106;52.532;13.408;2022-08-03T12:06:12;3.05;;;1.83;;
8129;SDS011;4106;52.532;13.408;2022-08-03T12:08:39;1.73;;;1.62;;
8129;SDS011;4106;52.532;13.408;2022-08-03T12:11:07;2.25;;;2.03;;
8129;SDS011;4106;52.532;13.408;2022-08-03T12:13:36;2.00;;;1.90;;
8129;SDS011;4106;52.532;13.408;2022-08-03T12:16:03;2.60;;;1.60;;
8129;SDS011;4106;52.532;13.408;2022-08-03T12:18:30;1.90;;;1.80;;
8129;SDS011;4106;52.532;13.408;2022-08-03T12:21:03;2.25;;;1.95;;
8129;SDS011;4106;52.532;13.408;2022-08-03T12:23:33;1.80;;;1.48;;
8129;SDS011;4106;52.532;13.408;2022-08-03T12:26:00;1.33;;;1.20;;
8129;SDS011;4106;52.532;13.408;2022-08-03T12:28:28;1.00;;;1.00;;
8129;SDS011;4106;52.532;13.408;2022-08-03T12:30:59;1.20;;;1.20;;
8129;SDS011;4106;52.532;13.408;2022-08-03T12:33:25;1.37;;;1.27;;
8129;SDS011;4106;52.532;13.408;2022-08-03T12:38:30;1.85;;;1.70;;
8129;SDS011;4106;52.532;13.408;2022-08-03T12:40:59;1.30;;;1.20;;
8129;SDS011;4106;52.532;13.408;2022-08-03T12:43:26;1.58;;;1.48;;
8129;SDS011;4106;52.532;13.408;2022-08-03T12:48:32;2.47;;;1.48;;
8129;SDS011;4106;52.532;13.408;2022-08-03T12:53:33;1.50;;;1.40;;
8129;SDS011;4106;52.532;13.408;2022-08-03T12:56:01;1.27;;;1.27;;
8129;SDS011;4106;52.532;13.408;2022-08-03T12:58:29;1.55;;;1.20;;
8129;SDS011;4106;52.532;13.408;2022-08-03T13:00:57;1.30;;;1.20;;
8129;SDS011;4106;52.532;13.408;2022-08-03T13:03:25;1.48;;;1.37;;
8129;SDS011;4106;52.532;13.408;2022-08-03T13:05:53;1.05;;;1.05;;
8129;SDS011;4106;52.532;13.408;2022-08-03T13:08:22;1.33;;;1.23;;
8129;SDS011;4106;52.532;13.408;2022-08-03T13:10:48;1.20;;;1.20;;
8129;SDS011;4106;52.532;13.408;2022-08-03T13:13:15;1.40;;;1.40;;
8129;SDS011;4106;52.532;13.408;2022-08-03T13:15:42;4.25;;;1.40;;
8129;SDS011;4106;52.532;13.408;2022-08-03T13:18:10;2.35;;;1.20;;
8129;SDS011;4106;52.532;13.408;2022-08-03T13:20:37;3.22;;;1.60;;
8129;SDS011;4106;52.532;13.408;2022-08-03T13:23:04;1.10;;;1.05;;
8129;SDS011;4106;52.532;13.408;2022-08-03T13:25:31;1.25;;;1.23;;
8129;SDS011;4106;52.532;13.408;2022-08-03T13:27:58;1.73;;;1.62;;
8129;SDS011;4106;52.532;13.408;2022-08-03T13:30:26;1.62;;;1.52;;
8129;SDS011;4106;52.532;13.408;2022-08-03T13:32:53;3.95;;;1.60;;
8129;SDS011;4106;52.532;13.408;2022-08-03T13:35:20;2.55;;;1.33;;
8129;SDS011;4106;52.532;13.408;2022-08-03T13:37:48;0.82;;;0.82;;
8129;SDS011;4106;52.532;13.408;2022-08-03T13:40:16;1.30;;;1.00;;
8129;SDS011;4106;52.532;13.408;2022-08-03T13:42:44;1.20;;;1.20;;
8129;SDS011;4106;52.532;13.408;2022-08-03T13:45:12;1.52;;;1.52;;
8129;SDS011;4106;52.532;13.408;2022-08-03T13:47:39;3.60;;;1.60;;
8129;SDS011;4106;52.532;13.408;2022-08-03T13:50:06;1.60;;;1.35;;
8129;SDS011;4106;52.532;13.408;2022-08-03T13:52:34;1.92;;;1.00;;
8129;SDS011;4106;52.532;13.408;2022-08-03T13:55:01;1.48;;;1.37;;
8129;SDS011;4106;52.532;13.408;2022-08-03T13:57:28;1.60;;;1.50;;
8129;SDS011;4106;52.532;13.408;2022-08-03T13:59:55;1.40;;;1.30;;
8129;SDS011;4106;52.532;13.408;2022-08-03T14:02:22;1.55;;;1.30;;
8129;SDS011;4106;52.532;13.408;2022-08-03T14:04:49;2.35;;;1.60;;
8129;SDS011;4106;52.532;13.408;2022-08-03T14:07:17;2.33;;;1.25;;
8129;SDS011;4106;52.532;13.408;2022-08-03T14:09:44;1.48;;;1.37;;
8129;SDS011;4106;52.532;13.408;2022-08-03T14:12:11;1.77;;;0.98;;
8129;SDS011;4106;52.532;13.408;2022-08-03T14:14:38;3.28;;;1.48;;
8129;SDS011;4106;52.532;13.408;2022-08-03T14:17:05;2.28;;;1.25;;
8129;SDS011;4106;52.532;13.408;2022-08-03T14:19:33;1.35;;;1.35;;
8129;SDS011;4106;52.532;13.408;2022-08-03T14:22:01;1.98;;;1.45;;
8129;SDS011;4106;52.532;13.408;2022-08-03T14:24:29;2.33;;;1.50;;
8129;SDS011;4106;52.532;13.408;2022-08-03T14:26:57;1.77;;;1.65;;
8129;SDS011;4106;52.532;13.408;2022-08-03T14:29:24;2.00;;;1.50;;
8129;SDS011;4106;52.532;13.408;2022-08-03T14:31:52;3.42;;;1.62;;
8129;SDS011;4106;52.532;13.408;2022-08-03T14:34:20;1.83;;;1.30;;
8129;SDS011;4106;52.532;13.408;2022-08-03T14:36:48;1.00;;;1.00;;
8129;SDS011;4106;52.532;13.408;2022-08-03T14:39:15;1.50;;;1.40;;
8129;SDS011;4106;52.532;13.408;2022-08-03T14:41:42;1.50;;;1.40;;
8129;SDS011;4106;52.532;13.408;2022-08-03T14:44:10;1.40;;;1.20;;
8129;SDS011;4106;52.532;13.408;2022-08-03T14:46:38;1.98;;;1.70;;
8129;SDS011;4106;52.532;13.408;2022-08-03T14:49:06;1.70;;;1.60;;
8129;SDS011;4106;52.532;13.408;2022-08-03T14:51:34;2.50;;;1.70;;
8129;SDS011;4106;52.532;13.408;2022-08-03T14:54:01;1.67;;;1.58;;
8129;SDS011;4106;52.532;13.408;2022-08-03T14:56:28;1.37;;;1.33;;
8129;SDS011;4106;52.532;13.408;2022-08-03T14:58:56;1.67;;;1.58;;
8129;SDS011;4106;52.532;13.408;2022-08-03T15:01:23;2.37;;;1.90;;
8129;SDS011;4106;52.532;13.408;2022-08-03T15:03:50;3.17;;;1.37;;
8129;SDS011;4106;52.532;13.408;2022-08-03T15:06:18;1.75;;;1.60;;
8129;SDS011;4106;52.532;13.408;2022-08-03T15:08:46;1.90;;;1.80;;
8129;SDS011;4106;52.532;13.408;2022-08-03T15:11:13;1.70;;;1.60;;
8129;SDS011;4106;52.532;13.408;2022-08-03T15:13:40;1.87;;;1.60;;
8129;SDS011;4106;52.532;13.408;2022-08-03T15:16:07;1.70;;;1.60;;
8129;SDS011;4106;52.532;13.408;2022-08-03T15:18:34;4.20;;;1.50;;
8129;SDS011;4106;52.532;13.408;2022-08-03T15:21:02;1.33;;;1.33;;
8129;SDS011;4106;52.532;13.408;2022-08-03T15:23:29;1.83;;;1.70;;
8129;SDS011;4106;52.532;13.408;2022-08-03T15:25:57;1.65;;;1.52;;
8129;SDS011;4106;52.532;13.408;2022-08-03T15:28:25;1.90;;;1.80;;
8129;SDS011;4106;52.532;13.408;2022-08-03T15:30:52;1.52;;;1.42;;
8129;SDS011;4106;52.532;13.408;2022-08-03T15:33:20;2.08;;;1.75;;
8129;SDS011;4106;52.532;13.408;2022-08-03T15:35:48;2.20;;;1.52;;
8129;SDS011;4106;52.532;13.408;2022-08-03T15:38:15;1.65;;;1.52;;